createdAt,value
2018-04-11T00:06:54.453Z,99.99
2018-04-11T00:17:00.049Z,99.99
2018-04-11T00:26:58.543Z,99.99
2018-04-11T00:36:54.418Z,99.99
2018-04-11T00:46:54.475Z,99.99
2018-04-11T00:56:54.481Z,99.99
2018-04-11T01:06:54.534Z,99.99
2018-04-11T01:16:54.466Z,99.99
2018-04-11T01:26:54.464Z,99.99
2018-04-11T01:36:54.543Z,99.99
2018-04-11T01:46:54.459Z,99.99
2018-04-11T01:56:54.449Z,99.99
2018-04-11T02:06:54.471Z,99.99
2018-04-11T02:16:54.467Z,99.99
2018-04-11T02:26:54.516Z,99.99
2018-04-11T02:36:54.494Z,99.99
2018-04-11T02:46:54.439Z,99.99
2018-04-11T02:56:54.525Z,99.99
2018-04-11T03:06:54.440Z,99.99
2018-04-11T03:16:54.506Z,99.99
2018-04-11T03:26:54.456Z,99.99
2018-04-11T03:36:54.435Z,99.99
2018-04-11T03:46:54.520Z,99.99
2018-04-11T03:56:54.565Z,99.99
2018-04-11T04:06:54.501Z,99.99
2018-04-11T04:16:54.614Z,99.99
2018-04-11T04:26:54.559Z,99.99
2018-04-11T04:36:54.516Z,99.99
2018-04-11T04:46:54.552Z,99.99
2018-04-11T04:56:54.521Z,99.99
2018-04-11T05:06:54.638Z,99.99
2018-04-11T05:16:54.605Z,99.99
2018-04-11T05:26:54.612Z,99.99
2018-04-11T05:36:54.580Z,99.99
2018-04-11T05:46:54.648Z,99.99
2018-04-11T05:56:54.590Z,99.99
2018-04-11T06:06:54.682Z,99.99
2018-04-11T06:16:54.640Z,99.99
2018-04-11T06:26:54.636Z,99.99
2018-04-11T06:36:54.649Z,99.99
2018-04-11T06:46:54.627Z,99.99
2018-04-11T06:56:54.669Z,99.99
2018-04-11T07:06:54.765Z,99.99
2018-04-11T07:16:54.691Z,99.99
2018-04-11T07:26:54.688Z,99.99
2018-04-11T07:36:54.728Z,99.99
2018-04-11T07:46:54.738Z,99.99
2018-04-11T07:56:54.784Z,99.99
2018-04-11T08:06:54.707Z,99.99
2018-04-11T08:16:54.960Z,91.35
2018-04-11T08:26:54.753Z,73.15
2018-04-11T08:36:54.730Z,73.72
2018-04-11T08:46:54.821Z,89.05
2018-04-11T08:56:54.698Z,96.61
2018-04-11T09:06:54.698Z,96.66
2018-04-11T09:16:54.689Z,94.26
2018-04-11T09:26:54.709Z,94.17
2018-04-11T09:36:54.742Z,90.28
2018-04-11T09:46:54.720Z,92.82
2018-04-11T09:56:54.749Z,96.42
2018-04-11T10:06:54.718Z,92.19
2018-04-11T10:16:54.743Z,92.96
2018-04-11T10:26:54.686Z,91.09
2018-04-11T10:36:54.744Z,87.96
2018-04-11T10:46:54.703Z,87.24
2018-04-11T10:56:54.761Z,82.92
2018-04-11T11:06:54.705Z,83.09
2018-04-11T11:16:54.736Z,79.58
2018-04-11T11:26:54.689Z,80.87
2018-04-11T11:36:54.698Z,80.15
2018-04-11T11:46:54.774Z,78.69
2018-04-11T11:56:54.861Z,81.98
2018-04-11T12:06:54.708Z,90.21
2018-04-11T12:16:54.718Z,88.68
2018-04-11T12:26:54.748Z,89.59
2018-04-11T12:36:54.700Z,94.64
2018-04-11T12:46:54.709Z,98.58
2018-04-11T12:56:54.717Z,91.04
2018-04-11T13:06:54.683Z,89.98
2018-04-11T13:16:54.712Z,87.33
2018-04-11T13:26:54.809Z,88.06
2018-04-11T13:36:54.699Z,90.21
2018-04-11T13:46:54.712Z,86.08
2018-04-11T13:56:54.722Z,87.04
2018-04-11T14:06:54.710Z,86.79
2018-04-11T14:16:54.738Z,91.27
2018-04-11T14:26:54.776Z,91.32
2018-04-11T14:36:54.704Z,93.53
2018-04-11T14:46:54.766Z,96.37
2018-04-11T14:56:54.725Z,94.11
2018-04-11T15:06:54.790Z,94.3
2018-04-11T15:16:54.752Z,99.25
2018-04-11T15:27:00.302Z,99.68
2018-04-11T15:36:54.959Z,99.99
2018-04-11T15:46:54.847Z,99.99
2018-04-11T15:56:54.875Z,99.99
2018-04-11T16:06:54.962Z,99.99
2018-04-11T16:16:54.811Z,99.99
2018-04-11T16:26:54.789Z,99.99
2018-04-11T16:36:54.960Z,99.99
2018-04-11T16:46:54.913Z,99.99
2018-04-11T16:56:54.774Z,99.99
2018-04-11T17:06:54.746Z,99.99
2018-04-11T17:16:54.824Z,99.99
2018-04-11T17:26:54.823Z,99.99
2018-04-11T17:36:54.841Z,99.99
2018-04-11T17:46:54.829Z,99.99
2018-04-11T17:56:54.779Z,99.99
2018-04-11T18:06:54.711Z,99.99
2018-04-11T18:16:55.001Z,99.99
2018-04-11T18:26:54.874Z,99.99
2018-04-11T18:36:54.815Z,99.99
2018-04-11T18:46:54.778Z,99.99
2018-04-11T18:56:54.983Z,99.99
2018-04-11T19:06:55.345Z,99.99
2018-04-11T19:16:54.761Z,99.99
2018-04-11T19:26:54.824Z,99.99
2018-04-11T19:36:54.841Z,99.99
2018-04-11T19:46:54.861Z,99.99
2018-04-11T19:56:54.847Z,99.99
2018-04-11T20:06:54.813Z,99.99
2018-04-11T20:16:54.736Z,99.99
2018-04-11T20:26:54.847Z,99.99
2018-04-11T20:36:54.787Z,99.99
2018-04-11T20:46:54.783Z,99.99
2018-04-11T20:56:54.918Z,99.99
2018-04-11T21:06:54.956Z,99.99
2018-04-11T21:56:54.952Z,99.99
2018-04-11T22:16:55.208Z,99.99
2018-04-11T22:26:55.045Z,99.99
2018-04-11T22:36:54.825Z,99.99
2018-04-11T22:46:54.715Z,99.99
2018-04-11T22:56:54.799Z,99.99
2018-04-11T23:06:54.765Z,99.99
2018-04-11T23:16:54.736Z,99.99
2018-04-11T23:26:54.794Z,99.99
2018-04-11T23:36:54.728Z,99.99
2018-04-11T23:46:54.808Z,99.99
2018-04-11T23:56:54.905Z,99.99
